Time,TemperatureF,DewpointF,PressureIn,WindDirection,WindDirectionDegrees,WindSpeedMPH,WindSpeedGustMPH,Humidity,HourlyPrecipIn,Conditions,Clouds,dailyrainin,SoftwareType,DateUTC
2013-09-09 00:00:00,73.4,68.0,29.95,NW,315,0.0,-999.0,83,0.00,,,-99.99,original,2013-09-08 15:00:00,
2013-09-09 00:10:00,72.9,67.9,29.96,NNW,338,1.6,-999.0,84,0.00,,,-99.99,original,2013-09-08 15:10:00,
2013-09-09 00:20:00,72.7,67.9,29.95,NW,315,2.0,-999.0,84,0.00,,,-99.99,original,2013-09-08 15:20:00,
2013-09-09 00:30:00,72.8,67.9,29.95,NW,315,2.0,-999.0,84,0.00,,,-99.99,original,2013-09-08 15:30:00,
2013-09-09 00:40:00,73.0,68.1,29.95,West,270,1.6,-999.0,84,0.00,,,-99.99,original,2013-09-08 15:40:00,
2013-09-09 00:50:00,72.8,67.9,29.95,NW,315,0.9,-999.0,84,0.00,,,-99.99,original,2013-09-08 15:50:00,
2013-09-09 01:00:00,72.7,68.0,29.95,West,270,2.0,-999.0,85,0.00,,,-99.99,original,2013-09-08 16:00:00,
2013-09-09 01:10:00,72.5,67.9,29.95,North,0,2.5,-999.0,85,0.00,,,-99.99,original,2013-09-08 16:10:00,
2013-09-09 01:20:00,72.4,67.7,29.95,NW,315,1.6,-999.0,85,0.00,,,-99.99,original,2013-09-08 16:20:00,
2013-09-09 01:30:00,72.2,67.8,29.95,NW,315,1.6,-999.0,85,0.00,,,-99.99,original,2013-09-08 16:30:00,
2013-09-09 01:40:00,72.1,67.5,29.95,NW,315,0.9,-999.0,85,0.00,,,-99.99,original,2013-09-08 16:40:00,
2013-09-09 01:50:00,72.1,67.5,29.95,NW,315,1.6,-999.0,85,0.00,,,-99.99,original,2013-09-08 16:50:00,
2013-09-09 02:00:00,71.8,67.4,29.95,NW,315,0.4,-999.0,85,0.00,,,-99.99,original,2013-09-08 17:00:00,
2013-09-09 02:10:00,71.3,68.1,29.95,South,180,2.9,-999.0,89,0.00,,,-99.99,original,2013-09-08 17:10:00,
2013-09-09 02:20:00,71.3,68.0,29.95,SE,135,0.0,-999.0,89,0.00,,,-99.99,original,2013-09-08 17:20:00,
2013-09-09 02:30:00,71.0,68.1,29.96,SW,225,1.6,-999.0,90,0.00,,,-99.99,original,2013-09-08 17:30:00,
2013-09-09 02:40:00,70.9,68.2,29.95,South,180,0.4,-999.0,91,0.00,,,-99.99,original,2013-09-08 17:40:00,
2013-09-09 02:50:00,70.8,68.1,29.95,North,0,0.0,-999.0,91,0.00,,,-99.99,original,2013-09-08 17:50:00,
2013-09-09 03:00:00,71.1,68.1,29.95,South,180,0.4,-999.0,90,0.00,,,-99.99,original,2013-09-08 18:00:00,
2013-09-09 03:10:00,71.0,68.1,29.95,South,180,0.9,-999.0,90,0.00,,,-99.99,original,2013-09-08 18:10:00,
2013-09-09 03:20:00,70.7,67.8,29.95,South,180,2.0,-999.0,90,0.00,,,-99.99,original,2013-09-08 18:20:00,
2013-09-09 03:30:00,70.2,67.8,29.95,SE,135,2.0,-999.0,91,0.00,,,-99.99,original,2013-09-08 18:30:00,
2013-09-09 03:40:00,69.4,67.3,29.95,East,90,2.9,-999.0,93,0.00,,,-99.99,original,2013-09-08 18:40:00,
2013-09-09 03:50:00,69.9,67.5,29.96,South,180,0.9,-999.0,92,0.00,,,-99.99,original,2013-09-08 18:50:00,
2013-09-09 04:00:00,70.5,67.8,29.95,North,0,0.0,-999.0,91,0.00,,,-99.99,original,2013-09-08 19:00:00,
2013-09-09 04:10:00,70.0,67.5,29.95,South,180,1.6,-999.0,91,0.00,,,-99.99,original,2013-09-08 19:10:00,
2013-09-09 04:20:00,69.9,67.4,29.95,NE,45,1.6,-999.0,91,0.00,,,-99.99,original,2013-09-08 19:20:00,
2013-09-09 04:30:00,69.6,67.3,29.95,North,0,1.6,-999.0,92,0.00,,,-99.99,original,2013-09-08 19:30:00,
2013-09-09 04:40:00,69.4,67.2,29.95,NE,45,2.5,-999.0,92,0.00,,,-99.99,original,2013-09-08 19:40:00,
2013-09-09 04:50:00,69.1,67.1,29.95,North,0,0.9,-999.0,93,0.00,,,-99.99,original,2013-09-08 19:50:00,
2013-09-09 05:00:00,69.1,67.0,29.95,North,0,0.0,-999.0,93,0.00,,,-99.99,original,2013-09-08 20:00:00,
2013-09-09 05:10:00,69.2,67.1,29.96,North,0,0.4,-999.0,92,0.00,,,-99.99,original,2013-09-08 20:10:00,
2013-09-09 05:20:00,69.3,67.2,29.95,North,0,0.0,-999.0,92,0.00,,,-99.99,original,2013-09-08 20:20:00,
2013-09-09 05:30:00,69.0,67.0,29.95,North,0,0.4,-999.0,93,0.00,,,-99.99,original,2013-09-08 20:30:00,
2013-09-09 05:40:00,69.0,67.0,29.95,North,0,0.0,-999.0,93,0.00,,,-99.99,original,2013-09-08 20:40:00,
2013-09-09 05:50:00,69.0,67.0,29.96,NE,45,0.0,-999.0,93,0.00,,,-99.99,original,2013-09-08 20:50:00,
2013-09-09 06:00:00,69.3,66.9,29.96,SW,225,0.9,-999.0,92,0.00,,,-99.99,original,2013-09-08 21:00:00,
2013-09-09 06:10:00,69.7,67.2,29.95,East,90,0.4,-999.0,91,0.00,,,-99.99,original,2013-09-08 21:10:00,
2013-09-09 06:20:00,71.4,67.9,29.96,West,270,0.4,-999.0,88,0.00,,,-99.99,original,2013-09-08 21:20:00,
2013-09-09 06:30:00,70.6,67.5,29.96,SW,225,0.4,-999.0,89,0.00,,,-99.99,original,2013-09-08 21:30:00,
2013-09-09 06:40:00,71.5,68.1,29.96,NW,315,0.4,-999.0,89,0.00,,,-99.99,original,2013-09-08 21:40:00,
2013-09-09 06:50:00,72.3,67.8,29.96,NW,315,1.6,-999.0,85,0.00,,,-99.99,original,2013-09-08 21:50:00,
2013-09-09 07:00:00,70.7,67.0,29.96,North,0,1.6,-999.0,88,0.00,,,-99.99,original,2013-09-08 22:00:00,
2013-09-09 07:10:00,72.9,67.0,29.97,NE,45,1.6,-999.0,81,0.00,,,-99.99,original,2013-09-08 22:10:00,
2013-09-09 07:20:00,73.0,67.2,29.97,NW,315,0.9,-999.0,82,0.00,,,-99.99,original,2013-09-08 22:20:00,
2013-09-09 07:30:00,74.1,67.9,29.97,NW,315,1.6,-999.0,81,0.00,,,-99.99,original,2013-09-08 22:30:00,
2013-09-09 07:40:00,73.7,67.8,29.97,NW,315,2.5,-999.0,81,0.00,,,-99.99,original,2013-09-08 22:40:00,
2013-09-09 07:50:00,75.4,67.5,29.97,NW,315,2.0,-999.0,76,0.00,,,-99.99,original,2013-09-08 22:50:00,
2013-09-09 08:00:00,76.9,68.4,29.97,North,0,2.0,-999.0,75,0.00,,,-99.99,original,2013-09-08 23:00:00,
2013-09-09 08:10:00,75.5,66.9,29.98,West,270,1.6,-999.0,74,0.00,,,-99.99,original,2013-09-08 23:10:00,
2013-09-09 08:20:00,78.5,68.8,29.98,WNW,292,2.9,-999.0,72,0.00,,,-99.99,original,2013-09-08 23:20:00,
2013-09-09 08:30:00,76.8,67.2,29.98,NW,315,2.0,-999.0,72,0.00,,,-99.99,original,2013-09-08 23:30:00,
2013-09-09 08:40:00,79.7,69.0,29.98,West,270,0.9,-999.0,69,0.00,,,-99.99,original,2013-09-08 23:40:00,
2013-09-09 08:50:00,78.7,69.1,29.98,SE,135,0.9,-999.0,72,0.00,,,-99.99,original,2013-09-08 23:50:00,
2013-09-09 09:00:00,77.9,68.2,29.98,SW,225,2.9,-999.0,72,0.00,,,-99.99,original,2013-09-09 00:00:00,
2013-09-09 09:10:00,80.0,67.4,29.98,South,180,2.0,-999.0,65,0.00,,,-99.99,original,2013-09-09 00:10:00,
2013-09-09 09:20:00,81.0,68.6,29.98,North,0,3.6,-999.0,66,0.00,,,-99.99,original,2013-09-09 00:20:00,
2013-09-09 09:30:00,81.6,68.1,29.98,NE,45,4.0,-999.0,63,0.00,,,-99.99,original,2013-09-09 00:30:00,
2013-09-09 09:40:00,82.1,67.6,29.98,SE,135,4.5,-999.0,61,0.00,,,-99.99,original,2013-09-09 00:40:00,
2013-09-09 09:50:00,81.7,66.7,29.97,North,0,2.9,-999.0,60,0.00,,,-99.99,original,2013-09-09 00:50:00,
2013-09-09 10:00:00,82.8,67.2,29.96,ESE,112,2.5,-999.0,59,0.00,,,-99.99,original,2013-09-09 01:00:00,
2013-09-09 10:10:00,84.9,66.7,29.96,SE,135,5.4,-999.0,54,0.00,,,-99.99,original,2013-09-09 01:10:00,
2013-09-09 10:20:00,84.2,66.8,29.96,North,0,5.4,-999.0,56,0.00,,,-99.99,original,2013-09-09 01:20:00,
2013-09-09 10:30:00,82.8,66.2,29.96,North,0,2.0,-999.0,57,0.00,,,-99.99,original,2013-09-09 01:30:00,
2013-09-09 10:40:00,83.3,65.9,29.96,SE,135,4.5,-999.0,55,0.00,,,-99.99,original,2013-09-09 01:40:00,
2013-09-09 10:50:00,83.0,65.4,29.95,SSW,202,3.6,-999.0,55,0.00,,,-99.99,original,2013-09-09 01:50:00,
2013-09-09 11:00:00,86.0,66.1,29.95,West,270,4.5,-999.0,51,0.00,,,-99.99,original,2013-09-09 02:00:00,
2013-09-09 11:10:00,82.3,64.8,29.95,West,270,2.0,-999.0,55,0.00,,,-99.99,original,2013-09-09 02:10:00,
2013-09-09 11:20:00,86.0,65.8,29.94,WSW,248,7.4,-999.0,51,0.00,,,-99.99,original,2013-09-09 02:20:00,
2013-09-09 11:30:00,86.5,65.2,29.94,SW,225,2.5,-999.0,49,0.00,,,-99.99,original,2013-09-09 02:30:00,
2013-09-09 11:40:00,88.5,65.1,29.93,NW,315,4.0,-999.0,46,0.00,,,-99.99,original,2013-09-09 02:40:00,
2013-09-09 11:50:00,87.2,63.9,29.93,SW,225,3.6,-999.0,46,0.00,,,-99.99,original,2013-09-09 02:50:00,
2013-09-09 12:00:00,84.5,62.0,29.92,SE,135,6.0,-999.0,46,0.00,,,-99.99,original,2013-09-09 03:00:00,
2013-09-09 12:10:00,87.5,64.4,29.91,East,90,6.0,-999.0,46,0.00,,,-99.99,original,2013-09-09 03:10:00,
2013-09-09 12:20:00,88.2,63.2,29.91,WNW,292,6.5,-999.0,43,0.00,,,-99.99,original,2013-09-09 03:20:00,
2013-09-09 12:30:00,88.8,61.7,29.91,NE,45,6.0,-999.0,40,0.00,,,-99.99,original,2013-09-09 03:30:00,
2013-09-09 12:40:00,89.5,61.8,29.91,NNW,338,6.9,-999.0,39,0.00,,,-99.99,original,2013-09-09 03:40:00,
2013-09-09 12:50:00,90.2,62.4,29.91,South,180,3.6,-999.0,39,0.00,,,-99.99,original,2013-09-09 03:50:00,
2013-09-09 13:00:00,88.9,64.3,29.90,SE,135,4.5,-999.0,44,0.00,,,-99.99,original,2013-09-09 04:00:00,
2013-09-09 13:10:00,88.2,62.3,29.90,SW,225,4.0,-999.0,42,0.00,,,-99.99,original,2013-09-09 04:10:00,
2013-09-09 13:20:00,88.7,62.3,29.90,South,180,3.6,-999.0,41,0.00,,,-99.99,original,2013-09-09 04:20:00,
2013-09-09 13:30:00,86.9,63.1,29.89,SW,225,2.9,-999.0,45,0.00,,,-99.99,original,2013-09-09 04:30:00,
2013-09-09 13:40:00,90.6,63.8,29.89,NE,45,6.0,-999.0,41,0.00,,,-99.99,original,2013-09-09 04:40:00,
2013-09-09 13:50:00,90.8,64.9,29.89,East,90,4.0,-999.0,42,0.00,,,-99.99,original,2013-09-09 04:50:00,
2013-09-09 14:00:00,89.0,64.4,29.89,East,90,8.9,-999.0,44,0.00,,,-99.99,original,2013-09-09 05:00:00,
2013-09-09 14:10:00,88.2,63.1,29.88,NW,315,8.1,-999.0,43,0.00,,,-99.99,original,2013-09-09 05:10:00,
2013-09-09 14:20:00,88.4,63.5,29.88,NE,45,8.9,-999.0,43,0.00,,,-99.99,original,2013-09-09 05:20:00,
2013-09-09 14:30:00,89.2,63.5,29.88,NE,45,6.9,-999.0,42,0.00,,,-99.99,original,2013-09-09 05:30:00,
2013-09-09 14:40:00,88.5,63.6,29.87,North,0,4.5,-999.0,43,0.00,,,-99.99,original,2013-09-09 05:40:00,
2013-09-09 14:50:00,88.0,63.9,29.87,NW,315,6.0,-999.0,44,0.00,,,-99.99,original,2013-09-09 05:50:00,
2013-09-09 15:00:00,87.4,64.2,29.87,NE,45,4.0,-999.0,46,0.00,,,-99.99,original,2013-09-09 06:00:00,
2013-09-09 15:10:00,87.0,63.7,29.87,NNE,22,5.4,-999.0,46,0.00,,,-99.99,original,2013-09-09 06:10:00,
2013-09-09 15:20:00,87.1,63.9,29.87,South,180,3.6,-999.0,46,0.00,,,-99.99,original,2013-09-09 06:20:00,
2013-09-09 15:30:00,87.5,63.4,29.87,SE,135,6.0,-999.0,44,0.00,,,-99.99,original,2013-09-09 06:30:00,
2013-09-09 15:40:00,86.4,64.3,29.87,North,0,6.0,-999.0,47,0.00,,,-99.99,original,2013-09-09 06:40:00,
2013-09-09 15:50:00,86.6,64.0,29.87,NE,45,6.9,-999.0,47,0.00,,,-99.99,original,2013-09-09 06:50:00,
2013-09-09 16:00:00,85.8,64.0,29.87,East,90,6.0,-999.0,48,0.00,,,-99.99,original,2013-09-09 07:00:00,
2013-09-09 16:10:00,85.8,64.1,29.88,North,0,10.5,-999.0,48,0.00,,,-99.99,original,2013-09-09 07:10:00,
2013-09-09 16:20:00,85.4,64.4,29.87,East,90,8.5,-999.0,49,0.00,,,-99.99,original,2013-09-09 07:20:00,
2013-09-09 16:30:00,85.3,64.3,29.87,North,0,8.9,-999.0,49,0.00,,,-99.99,original,2013-09-09 07:30:00,
2013-09-09 16:40:00,85.9,64.7,29.86,NE,45,11.0,-999.0,49,0.00,,,-99.99,original,2013-09-09 07:40:00,
2013-09-09 16:50:00,86.7,65.2,29.87,NE,45,6.5,-999.0,48,0.00,,,-99.99,original,2013-09-09 07:50:00,
2013-09-09 17:00:00,85.7,64.5,29.86,NE,45,4.9,-999.0,49,0.00,,,-99.99,original,2013-09-09 08:00:00,
2013-09-09 17:10:00,84.6,63.9,29.87,NE,45,13.0,-999.0,50,0.00,,,-99.99,original,2013-09-09 08:10:00,
2013-09-09 17:20:00,84.1,63.7,29.87,East,90,15.0,-999.0,50,0.00,,,-99.99,original,2013-09-09 08:20:00,
2013-09-09 17:30:00,83.6,63.8,29.87,East,90,5.4,-999.0,51,0.00,,,-99.99,original,2013-09-09 08:30:00,
2013-09-09 17:40:00,83.3,64.1,29.87,East,90,7.4,-999.0,52,0.00,,,-99.99,original,2013-09-09 08:40:00,
2013-09-09 17:50:00,83.5,65.0,29.87,SE,135,8.9,-999.0,53,0.00,,,-99.99,original,2013-09-09 08:50:00,
2013-09-09 18:00:00,83.6,65.5,29.87,NE,45,9.8,-999.0,54,0.00,,,-99.99,original,2013-09-09 09:00:00,
2013-09-09 18:10:00,82.8,64.7,29.87,West,270,4.9,-999.0,54,0.00,,,-99.99,original,2013-09-09 09:10:00,
2013-09-09 18:20:00,81.1,64.6,29.88,NE,45,10.5,-999.0,57,0.00,,,-99.99,original,2013-09-09 09:20:00,
2013-09-09 18:30:00,81.1,65.1,29.88,North,0,7.4,-999.0,58,0.00,,,-99.99,original,2013-09-09 09:30:00,
2013-09-09 18:40:00,81.0,65.4,29.88,North,0,8.1,-999.0,59,0.00,,,-99.99,original,2013-09-09 09:40:00,
2013-09-09 18:50:00,80.3,65.9,29.89,North,0,7.4,-999.0,61,0.00,,,-99.99,original,2013-09-09 09:50:00,
2013-09-09 19:00:00,80.4,65.9,29.89,NW,315,4.5,-999.0,61,0.00,,,-99.99,original,2013-09-09 10:00:00,
2013-09-09 19:10:00,79.9,66.3,29.89,NE,45,6.5,-999.0,63,0.00,,,-99.99,original,2013-09-09 10:10:00,
2013-09-09 19:20:00,79.7,67.1,29.90,NE,45,6.0,-999.0,65,0.00,,,-99.99,original,2013-09-09 10:20:00,
2013-09-09 19:30:00,79.4,67.5,29.91,NE,45,6.5,-999.0,66,0.00,,,-99.99,original,2013-09-09 10:30:00,
2013-09-09 19:40:00,78.8,67.6,29.91,North,0,6.0,-999.0,68,0.00,,,-99.99,original,2013-09-09 10:40:00,
2013-09-09 19:50:00,79.1,67.8,29.91,North,0,1.6,-999.0,68,0.00,,,-99.99,original,2013-09-09 10:50:00,
2013-09-09 20:00:00,78.6,67.9,29.91,NE,45,4.5,-999.0,69,0.00,,,-99.99,original,2013-09-09 11:00:00,
2013-09-09 20:10:00,78.1,67.9,29.91,NNE,22,3.6,-999.0,71,0.00,,,-99.99,original,2013-09-09 11:10:00,
2013-09-09 20:20:00,77.8,67.9,29.92,North,0,3.6,-999.0,71,0.00,,,-99.99,original,2013-09-09 11:20:00,
2013-09-09 20:30:00,78.0,67.4,29.92,NW,315,5.4,-999.0,70,0.00,,,-99.99,original,2013-09-09 11:30:00,
2013-09-09 20:40:00,78.0,67.9,29.92,North,0,4.0,-999.0,71,0.00,,,-99.99,original,2013-09-09 11:40:00,
2013-09-09 20:50:00,77.5,67.7,29.92,NE,45,4.9,-999.0,72,0.00,,,-99.99,original,2013-09-09 11:50:00,
2013-09-09 21:00:00,77.5,67.5,29.92,NW,315,5.4,-999.0,71,0.00,,,-99.99,original,2013-09-09 12:00:00,
2013-09-09 21:10:00,77.4,67.5,29.93,NW,315,4.9,-999.0,71,0.00,,,-99.99,original,2013-09-09 12:10:00,
2013-09-09 21:20:00,77.1,67.2,29.93,North,0,6.0,-999.0,71,0.00,,,-99.99,original,2013-09-09 12:20:00,
2013-09-09 21:30:00,77.0,67.1,29.93,NW,315,4.9,-999.0,71,0.00,,,-99.99,original,2013-09-09 12:30:00,
2013-09-09 21:40:00,76.9,67.0,29.93,NE,45,4.0,-999.0,71,0.00,,,-99.99,original,2013-09-09 12:40:00,
2013-09-09 21:50:00,76.7,66.8,29.92,NE,45,4.5,-999.0,71,0.00,,,-99.99,original,2013-09-09 12:50:00,
2013-09-09 22:00:00,76.3,66.4,29.92,NW,315,1.6,-999.0,71,0.00,,,-99.99,original,2013-09-09 13:00:00,
2013-09-09 22:10:00,75.2,66.0,29.93,North,0,7.4,-999.0,73,0.00,,,-99.99,original,2013-09-09 13:10:00,
2013-09-09 22:20:00,75.2,66.2,29.93,NW,315,6.0,-999.0,73,0.00,,,-99.99,original,2013-09-09 13:20:00,
2013-09-09 22:30:00,74.8,66.2,29.93,NW,315,6.0,-999.0,74,0.00,,,-99.99,original,2013-09-09 13:30:00,
2013-09-09 22:40:00,75.0,66.8,29.93,NE,45,3.6,-999.0,75,0.00,,,-99.99,original,2013-09-09 13:40:00,
2013-09-09 22:50:00,74.3,66.6,29.92,North,0,4.0,-999.0,76,0.00,,,-99.99,original,2013-09-09 13:50:00,
2013-09-09 23:00:00,74.4,66.4,29.92,NE,45,3.6,-999.0,76,0.00,,,-99.99,original,2013-09-09 14:00:00,
2013-09-09 23:10:00,74.5,66.3,29.92,NE,45,4.0,-999.0,75,0.00,,,-99.99,original,2013-09-09 14:10:00,
2013-09-09 23:20:00,74.5,66.2,29.92,North,0,4.0,-999.0,75,0.00,,,-99.99,original,2013-09-09 14:20:00,
2013-09-09 23:30:00,74.5,66.1,29.92,NW,315,4.0,-999.0,75,0.00,,,-99.99,original,2013-09-09 14:30:00,
2013-09-09 23:40:00,74.3,65.7,29.93,North,0,3.6,-999.0,74,0.00,,,-99.99,original,2013-09-09 14:40:00,
2013-09-09 23:50:00,73.4,65.7,29.92,NW,315,6.0,-999.0,76,0.00,,,-99.99,original,2013-09-09 14:50:00,